createdAt,value
2019-01-30T00:02:09.056Z,30.85
2019-01-30T00:04:38.084Z,31.23
2019-01-30T00:07:07.240Z,30.85
2019-01-30T00:09:36.288Z,23.60
2019-01-30T00:12:05.252Z,24.82
2019-01-30T00:14:34.288Z,25.82
2019-01-30T00:17:03.395Z,29.90
2019-01-30T00:19:32.409Z,26.93
2019-01-30T00:22:01.635Z,25.75
2019-01-30T00:24:30.665Z,28.80
2019-01-30T00:26:59.869Z,31.87
2019-01-30T00:29:28.972Z,29.40
2019-01-30T00:31:58.048Z,34.65
2019-01-30T00:34:27.096Z,30.92
2019-01-30T00:36:56.083Z,29.12
2019-01-30T00:39:25.371Z,29.95
2019-01-30T00:41:54.429Z,30.60
2019-01-30T00:44:23.485Z,31.65
2019-01-30T00:46:52.531Z,31.00
2019-01-30T00:49:21.531Z,31.48
2019-01-30T00:51:50.560Z,27.73
2019-01-30T00:54:19.615Z,29.00
2019-01-30T00:56:48.609Z,31.70
2019-01-30T00:59:17.554Z,30.30
2019-01-30T01:01:46.538Z,27.40
2019-01-30T01:04:15.503Z,32.23
2019-01-30T01:06:44.591Z,29.57
2019-01-30T01:09:13.647Z,32.03
2019-01-30T01:11:42.740Z,29.50
2019-01-30T01:14:11.855Z,33.60
2019-01-30T01:16:40.897Z,32.23
2019-01-30T01:19:09.826Z,38.65
2019-01-30T01:21:38.905Z,30.52
2019-01-30T01:24:07.813Z,31.02
2019-01-30T01:26:36.908Z,29.40
2019-01-30T01:29:06.045Z,26.00
2019-01-30T01:31:34.999Z,32.08
2019-01-30T01:34:03.995Z,32.58
2019-01-30T01:36:33.108Z,33.38
2019-01-30T01:39:02.128Z,33.85
2019-01-30T01:41:31.025Z,33.50
2019-01-30T01:44:00.200Z,30.10
2019-01-30T01:46:29.137Z,31.55
2019-01-30T01:48:58.220Z,31.80
2019-01-30T01:51:27.280Z,31.30
2019-01-30T01:53:56.256Z,30.95
2019-01-30T01:56:25.373Z,32.65
2019-01-30T01:58:54.341Z,35.35
2019-01-30T02:01:23.444Z,30.35
2019-01-30T02:03:52.416Z,32.42
2019-01-30T02:06:21.492Z,31.50
2019-01-30T02:08:50.552Z,30.32
2019-01-30T02:11:19.609Z,31.90
2019-01-30T02:13:48.857Z,29.25
2019-01-30T02:16:17.882Z,32.23
2019-01-30T02:18:46.870Z,30.80
2019-01-30T02:21:15.352Z,31.77
2019-01-30T02:23:44.284Z,26.85
2019-01-30T02:26:13.328Z,31.55
2019-01-30T02:28:42.313Z,33.30
2019-01-30T02:31:11.273Z,31.30
2019-01-30T02:33:40.347Z,30.50
2019-01-30T02:36:09.362Z,27.15
2019-01-30T02:38:38.356Z,33.88
2019-01-30T02:41:07.348Z,33.40
2019-01-30T02:43:36.318Z,32.65
2019-01-30T02:46:06.845Z,32.88
2019-01-30T02:48:36.017Z,30.92
2019-01-30T02:51:06.403Z,32.65
2019-01-30T02:53:35.543Z,31.93
2019-01-30T02:56:04.591Z,31.17
2019-01-30T02:58:33.584Z,33.02
2019-01-30T03:01:02.853Z,34.48
2019-01-30T03:03:31.853Z,32.42
2019-01-30T03:06:00.764Z,31.70
2019-01-30T03:08:29.845Z,30.08
2019-01-30T03:10:58.998Z,29.40
2019-01-30T03:13:27.869Z,29.72
2019-01-30T03:15:56.773Z,30.27
2019-01-30T03:18:25.738Z,30.05
2019-01-30T03:20:54.573Z,31.00
2019-01-30T03:23:23.617Z,29.57
2019-01-30T03:25:52.744Z,30.60
2019-01-30T03:28:21.708Z,30.48
2019-01-30T03:30:51.025Z,30.50
2019-01-30T03:33:20.178Z,30.60
2019-01-30T03:35:49.249Z,28.92
2019-01-30T03:38:18.304Z,32.63
2019-01-30T03:40:47.375Z,32.13
2019-01-30T03:43:16.428Z,31.87
2019-01-30T03:45:45.507Z,29.20
2019-01-30T03:48:14.517Z,29.92
2019-01-30T03:50:43.572Z,33.00
2019-01-30T03:53:12.645Z,30.55
2019-01-30T03:55:41.508Z,31.37
2019-01-30T03:58:10.480Z,31.05
2019-01-30T04:00:39.549Z,32.40
2019-01-30T04:03:08.498Z,30.57
2019-01-30T04:05:37.785Z,30.40
2019-01-30T04:08:06.824Z,31.25
2019-01-30T04:10:35.788Z,30.08
2019-01-30T04:13:04.889Z,28.30
2019-01-30T04:15:33.861Z,30.20
2019-01-30T04:18:02.837Z,30.00
2019-01-30T04:20:32.096Z,30.00
2019-01-30T04:23:01.400Z,32.70
2019-01-30T04:25:30.280Z,30.60
2019-01-30T04:27:59.569Z,31.33
2019-01-30T04:30:28.620Z,33.53
2019-01-30T04:32:57.772Z,32.58
2019-01-30T04:35:26.807Z,28.80
2019-01-30T04:37:55.845Z,28.73
2019-01-30T04:40:24.932Z,32.35
2019-01-30T04:42:53.971Z,39.65
2019-01-30T04:45:24.396Z,32.03
2019-01-30T04:47:53.328Z,33.28
2019-01-30T04:50:22.293Z,30.68
2019-01-30T04:52:51.357Z,33.00
2019-01-30T04:55:20.395Z,32.50
2019-01-30T04:57:49.369Z,32.20
2019-01-30T05:00:20.621Z,30.08
2019-01-30T05:02:49.656Z,32.17
2019-01-30T05:05:18.652Z,31.37
2019-01-30T05:07:47.690Z,32.25
2019-01-30T05:10:16.868Z,33.95
2019-01-30T05:12:45.833Z,33.05
2019-01-30T05:15:16.660Z,32.38
2019-01-30T05:17:45.782Z,30.50
2019-01-30T05:20:16.114Z,29.63
2019-01-30T05:22:45.274Z,30.85
2019-01-30T05:25:14.876Z,32.38
2019-01-30T05:27:43.895Z,33.40
2019-01-30T05:30:21.520Z,34.27
2019-01-30T05:32:50.504Z,34.03
2019-01-30T05:35:19.530Z,31.60
2019-01-30T05:37:51.194Z,30.15
2019-01-30T05:40:19.230Z,30.52
2019-01-30T05:42:48.256Z,32.70
2019-01-30T05:45:17.275Z,31.80
2019-01-30T05:47:46.384Z,32.00
2019-01-30T05:50:15.450Z,32.25
2019-01-30T05:52:44.472Z,30.62
2019-01-30T05:55:14.877Z,31.37
2019-01-30T05:57:44.056Z,32.98
2019-01-30T06:00:16.074Z,32.93
2019-01-30T06:02:44.985Z,30.97
2019-01-30T06:05:13.912Z,29.55
2019-01-30T06:07:43.065Z,29.20
2019-01-30T06:10:12.105Z,32.80
2019-01-30T06:12:41.175Z,31.10
2019-01-30T06:15:11.908Z,30.60
2019-01-30T06:17:40.930Z,29.55
2019-01-30T06:20:14.402Z,29.23
2019-01-30T06:22:43.588Z,37.42
2019-01-30T06:25:12.631Z,31.95
2019-01-30T06:27:41.748Z,32.58
2019-01-30T06:30:12.452Z,31.50
2019-01-30T06:32:41.388Z,31.55
2019-01-30T06:35:10.564Z,28.90
2019-01-30T06:37:39.678Z,28.40
2019-01-30T06:40:12.712Z,30.27
2019-01-30T06:42:41.909Z,29.75
2019-01-30T06:45:10.986Z,29.07
2019-01-30T06:47:39.961Z,26.42
2019-01-30T06:50:09.683Z,29.72
2019-01-30T06:52:38.902Z,28.80
2019-01-30T06:55:07.824Z,32.58
2019-01-30T06:57:36.776Z,30.08
2019-01-30T07:00:12.544Z,28.32
2019-01-30T07:02:41.582Z,30.08
2019-01-30T07:05:10.617Z,31.82
2019-01-30T07:07:39.504Z,30.17
2019-01-30T07:10:11.993Z,30.32
2019-01-30T07:12:41.109Z,30.02
2019-01-30T07:15:10.091Z,31.45
2019-01-30T07:17:39.055Z,31.30
2019-01-30T07:20:08.517Z,30.45
2019-01-30T07:22:37.506Z,30.60
2019-01-30T07:25:07.696Z,30.65
2019-01-30T07:27:36.724Z,28.62
2019-01-30T07:30:18.194Z,30.10
2019-01-30T07:32:47.161Z,29.82
2019-01-30T07:35:16.133Z,31.50
2019-01-30T07:37:45.256Z,29.80
2019-01-30T07:40:14.372Z,31.25
2019-01-30T07:42:43.448Z,29.02
2019-01-30T07:45:14.818Z,33.30
2019-01-30T07:47:43.957Z,27.45
2019-01-30T07:50:13.007Z,30.37
2019-01-30T07:52:42.145Z,27.52
2019-01-30T07:55:13.020Z,29.15
2019-01-30T07:57:42.143Z,27.65
2019-01-30T08:00:31.109Z,29.00
2019-01-30T08:03:00.029Z,28.45
2019-01-30T08:05:28.940Z,27.52
2019-01-30T08:07:57.979Z,26.93
2019-01-30T08:10:27.002Z,24.52
2019-01-30T08:12:56.045Z,25.95
2019-01-30T08:15:25.288Z,27.60
2019-01-30T08:17:54.293Z,26.25
2019-01-30T08:20:23.255Z,26.52
2019-01-30T08:22:52.296Z,30.05
2019-01-30T08:25:23.230Z,25.80
2019-01-30T08:27:52.829Z,25.50
2019-01-30T08:30:28.118Z,24.47
2019-01-30T08:33:04.740Z,25.87
2019-01-30T08:35:29.652Z,29.23
2019-01-30T08:37:58.844Z,24.37
2019-01-30T08:40:27.885Z,24.50
2019-01-30T08:42:56.919Z,23.90
2019-01-30T08:45:27.858Z,28.87
2019-01-30T08:47:56.853Z,24.60
2019-01-30T08:50:27.394Z,29.47
2019-01-30T08:52:56.448Z,28.00
2019-01-30T08:55:25.727Z,26.73
2019-01-30T08:57:54.970Z,23.90
2019-01-30T09:00:25.888Z,27.90
2019-01-30T09:02:55.013Z,26.90
2019-01-30T09:05:25.217Z,28.57
2019-01-30T09:07:54.424Z,26.67
2019-01-30T09:10:24.347Z,27.27
2019-01-30T09:12:53.443Z,25.97
2019-01-30T09:15:24.128Z,26.90
2019-01-30T09:17:53.132Z,27.60
2019-01-30T09:20:23.146Z,28.07
2019-01-30T09:22:52.093Z,28.00
2019-01-30T09:25:23.004Z,28.93
2019-01-30T09:27:52.321Z,27.30
2019-01-30T09:30:27.535Z,28.17
2019-01-30T09:32:56.679Z,27.87
2019-01-30T09:35:25.805Z,28.67
2019-01-30T09:37:54.954Z,29.03
2019-01-30T09:40:24.065Z,29.57
2019-01-30T09:42:53.146Z,29.43
2019-01-30T09:45:22.600Z,28.27
2019-01-30T09:47:51.669Z,27.17
2019-01-30T09:50:20.883Z,34.27
2019-01-30T09:52:49.910Z,27.57
2019-01-30T09:55:18.993Z,25.50
2019-01-30T09:57:47.928Z,25.00
2019-01-30T10:00:29.836Z,27.50
2019-01-30T10:02:58.839Z,26.03
2019-01-30T10:05:27.937Z,27.10
2019-01-30T10:07:56.918Z,26.03
2019-01-30T10:10:31.061Z,23.90
2019-01-30T10:13:00.159Z,23.93
2019-01-30T10:15:31.896Z,23.23
2019-01-30T10:18:01.350Z,23.30
2019-01-30T10:20:30.997Z,23.83
2019-01-30T10:23:00.083Z,22.90
2019-01-30T10:25:29.149Z,24.13
2019-01-30T10:27:58.135Z,24.47
2019-01-30T10:30:30.350Z,24.37
2019-01-30T10:33:01.063Z,24.20
2019-01-30T10:35:30.080Z,26.23
2019-01-30T10:37:59.389Z,25.10
2019-01-30T10:40:28.436Z,24.10
2019-01-30T10:42:57.729Z,23.00
2019-01-30T10:45:26.777Z,23.50
2019-01-30T10:47:55.728Z,23.93
2019-01-30T10:50:25.824Z,24.40
2019-01-30T10:52:54.906Z,23.90
2019-01-30T10:55:25.698Z,23.07
2019-01-30T10:57:56.526Z,22.80
2019-01-30T11:00:28.381Z,23.20
2019-01-30T11:02:57.402Z,22.70
2019-01-30T11:05:26.597Z,22.60
2019-01-30T11:07:55.607Z,23.80
2019-01-30T11:10:24.583Z,23.00
2019-01-30T11:12:53.628Z,22.87
2019-01-30T11:15:23.880Z,22.97
2019-01-30T11:17:52.976Z,22.90
2019-01-30T11:20:22.274Z,22.87
2019-01-30T11:22:53.522Z,23.23
2019-01-30T11:25:24.774Z,24.10
2019-01-30T11:27:53.745Z,23.37
2019-01-30T11:30:22.776Z,23.30
2019-01-30T11:32:51.806Z,24.20
2019-01-30T11:35:20.748Z,25.30
2019-01-30T11:37:49.889Z,23.40
2019-01-30T11:40:19.638Z,23.17
2019-01-30T11:42:48.737Z,23.23
2019-01-30T11:45:20.427Z,22.57
2019-01-30T11:47:49.576Z,24.37
2019-01-30T11:50:18.682Z,22.40
2019-01-30T11:52:47.837Z,22.60
2019-01-30T11:55:17.168Z,23.50
2019-01-30T11:57:46.138Z,22.43
2019-01-30T12:00:22.340Z,22.60
2019-01-30T12:02:51.393Z,22.40
2019-01-30T12:05:20.576Z,23.17
2019-01-30T12:07:49.584Z,22.97
2019-01-30T12:10:18.698Z,22.43
2019-01-30T12:12:47.708Z,22.87
2019-01-30T12:15:18.341Z,22.30
2019-01-30T12:17:47.447Z,22.20
2019-01-30T12:20:16.762Z,22.67
2019-01-30T12:22:45.833Z,24.13
2019-01-30T12:25:16.080Z,22.40
2019-01-30T12:27:44.973Z,23.10
2019-01-30T12:30:20.423Z,22.27
2019-01-30T12:32:49.414Z,21.90
2019-01-30T12:35:18.507Z,23.10
2019-01-30T12:37:47.692Z,22.47
2019-01-30T12:40:18.298Z,22.33
2019-01-30T12:42:47.451Z,22.40
2019-01-30T12:45:19.145Z,28.90
2019-01-30T12:47:48.136Z,22.10
2019-01-30T12:50:17.279Z,27.63
2019-01-30T12:52:46.326Z,24.20
2019-01-30T12:55:15.352Z,22.73
2019-01-30T12:57:44.619Z,22.73
2019-01-30T13:00:19.397Z,22.30
2019-01-30T13:02:48.481Z,22.80
2019-01-30T13:05:18.973Z,22.80
2019-01-30T13:07:48.160Z,22.20
2019-01-30T13:10:17.202Z,22.60
2019-01-30T13:12:46.327Z,22.30
2019-01-30T13:15:16.663Z,22.60
2019-01-30T13:17:46.831Z,24.03
2019-01-30T13:20:18.069Z,23.40
2019-01-30T13:22:47.048Z,22.27
2019-01-30T13:25:24.628Z,22.30
2019-01-30T13:27:53.672Z,22.50
2019-01-30T13:30:25.241Z,26.43
2019-01-30T13:32:54.350Z,22.60
2019-01-30T13:35:23.189Z,22.47
2019-01-30T13:37:52.158Z,22.40
2019-01-30T13:40:23.741Z,22.43
2019-01-30T13:42:52.912Z,23.03
2019-01-30T13:45:21.909Z,22.20
2019-01-30T13:47:51.005Z,23.10
2019-01-30T13:50:21.522Z,22.50
2019-01-30T13:52:50.664Z,22.40
2019-01-30T13:55:19.866Z,22.57
2019-01-30T13:57:48.836Z,23.50
2019-01-30T14:00:20.622Z,22.53
2019-01-30T14:02:49.721Z,22.23
2019-01-30T14:05:18.925Z,22.50
2019-01-30T14:07:47.991Z,22.70
2019-01-30T14:10:16.880Z,22.90
2019-01-30T14:12:46.065Z,22.57
2019-01-30T14:15:16.925Z,22.67
2019-01-30T14:17:46.002Z,22.60
2019-01-30T14:20:17.046Z,22.70
2019-01-30T14:22:47.484Z,23.47
2019-01-30T14:25:16.657Z,22.97
2019-01-30T14:27:45.961Z,22.33
2019-01-30T14:30:19.150Z,22.63
2019-01-30T14:32:48.170Z,22.30
2019-01-30T14:35:17.571Z,22.30
2019-01-30T14:37:46.653Z,23.50
2019-01-30T14:40:16.809Z,23.10
2019-01-30T14:42:45.686Z,23.60
2019-01-30T14:45:16.360Z,22.73
2019-01-30T14:47:45.716Z,23.30
2019-01-30T14:50:18.353Z,22.70
2019-01-30T14:52:47.406Z,22.53
2019-01-30T14:55:16.943Z,22.57
2019-01-30T14:57:46.077Z,23.83
2019-01-30T15:00:20.242Z,23.17
2019-01-30T15:02:49.275Z,29.90
2019-01-30T15:05:22.507Z,22.73
2019-01-30T15:07:49.577Z,23.12
2019-01-30T15:10:19.391Z,24.60
2019-01-30T15:12:48.496Z,23.15
2019-01-30T15:15:19.596Z,22.40
2019-01-30T15:17:48.642Z,23.80
2019-01-30T15:20:19.727Z,22.77
2019-01-30T15:22:48.696Z,22.80
2019-01-30T15:25:18.704Z,23.65
2019-01-30T15:27:47.804Z,23.87
2019-01-30T15:30:17.736Z,24.45
2019-01-30T15:32:46.872Z,23.75
2019-01-30T15:35:15.969Z,22.60
2019-01-30T15:37:45.040Z,23.22
2019-01-30T15:40:16.288Z,23.52
2019-01-30T15:42:49.390Z,23.50
2019-01-30T15:45:19.128Z,22.65
2019-01-30T15:47:48.256Z,22.80
2019-01-30T15:50:19.581Z,22.55
2019-01-30T15:52:48.686Z,23.60
2019-01-30T15:55:17.799Z,24.23
2019-01-30T15:57:49.412Z,23.40
2019-01-30T16:00:24.908Z,23.55
2019-01-30T16:02:55.188Z,23.20
2019-01-30T16:05:24.296Z,23.22
2019-01-30T16:07:53.380Z,25.75
2019-01-30T16:10:22.600Z,23.92
2019-01-30T16:12:51.586Z,24.10
2019-01-30T16:15:24.776Z,22.67
2019-01-30T16:17:53.772Z,23.40
2019-01-30T16:20:22.857Z,24.65
2019-01-30T16:22:51.955Z,23.47
2019-01-30T16:25:21.142Z,23.30
2019-01-30T16:27:50.253Z,32.83
2019-01-30T16:30:20.744Z,23.20
2019-01-30T16:32:49.899Z,23.15
2019-01-30T16:35:22.321Z,22.90
2019-01-30T16:37:51.432Z,24.05
2019-01-30T16:40:20.489Z,25.15
2019-01-30T16:42:49.749Z,23.35
2019-01-30T16:45:23.632Z,23.60
2019-01-30T16:47:53.612Z,22.85
2019-01-30T16:50:22.632Z,22.80
2019-01-30T16:52:51.717Z,26.07
2019-01-30T16:55:20.761Z,25.05
2019-01-30T16:57:50.129Z,23.18
2019-01-30T17:00:21.426Z,24.37
2019-01-30T17:02:50.598Z,24.50
2019-01-30T17:05:19.641Z,23.00
2019-01-30T17:07:48.700Z,23.70
2019-01-30T17:10:17.840Z,22.55
2019-01-30T17:12:46.973Z,23.70
2019-01-30T17:15:18.208Z,22.80
2019-01-30T17:17:47.367Z,24.37
2019-01-30T17:20:21.519Z,26.45
2019-01-30T17:22:50.585Z,23.85
2019-01-30T17:25:19.909Z,24.72
2019-01-30T17:27:48.970Z,24.52
2019-01-30T17:30:24.684Z,25.40
2019-01-30T17:32:53.788Z,22.90
2019-01-30T17:35:22.912Z,23.35
2019-01-30T17:37:51.991Z,24.55
2019-01-30T17:40:22.720Z,22.82
2019-01-30T17:42:51.781Z,22.85
2019-01-30T17:45:20.904Z,23.18
2019-01-30T17:47:50.027Z,24.00
2019-01-30T17:50:21.209Z,25.85
2019-01-30T17:52:50.341Z,24.70
2019-01-30T17:55:19.438Z,25.92
2019-01-30T17:57:48.548Z,25.52
2019-01-30T18:00:28.777Z,26.97
2019-01-30T18:02:57.951Z,26.23
2019-01-30T18:05:27.003Z,27.35
2019-01-30T18:07:56.122Z,24.02
2019-01-30T18:10:25.255Z,25.17
2019-01-30T18:12:54.214Z,26.20
2019-01-30T18:15:23.320Z,23.87
2019-01-30T18:17:54.277Z,24.57
2019-01-30T18:20:23.278Z,24.15
2019-01-30T18:22:52.273Z,24.45
2019-01-30T18:25:21.391Z,25.20
2019-01-30T18:27:50.552Z,23.52
2019-01-30T18:30:19.605Z,24.40
2019-01-30T18:32:48.901Z,25.35
2019-01-30T18:35:18.002Z,27.90
2019-01-30T18:37:47.130Z,24.65
2019-01-30T18:40:20.485Z,24.67
2019-01-30T18:42:49.599Z,27.13
2019-01-30T18:45:23.826Z,25.60
2019-01-30T18:47:53.102Z,23.80
2019-01-30T18:50:25.113Z,23.80
2019-01-30T18:52:54.185Z,23.15
2019-01-30T18:55:23.263Z,23.50
2019-01-30T18:57:52.366Z,23.38
2019-01-30T19:00:30.078Z,24.23
2019-01-30T19:03:00.721Z,23.98
2019-01-30T19:05:30.884Z,23.67
2019-01-30T19:07:59.965Z,24.47
2019-01-30T19:10:28.996Z,27.37
2019-01-30T19:12:58.137Z,25.52
2019-01-30T19:15:27.331Z,23.90
2019-01-30T19:17:56.380Z,25.25
2019-01-30T19:20:28.574Z,25.77
2019-01-30T19:22:57.650Z,23.45
2019-01-30T19:25:26.727Z,25.20
2019-01-30T19:27:56.281Z,26.02
2019-01-30T19:30:27.393Z,25.08
2019-01-30T19:32:56.485Z,25.10
2019-01-30T19:35:25.611Z,25.15
2019-01-30T19:37:54.632Z,25.10
2019-01-30T19:40:23.827Z,25.72
2019-01-30T19:42:52.800Z,26.68
2019-01-30T19:45:24.899Z,29.30
2019-01-30T19:47:54.044Z,26.27
2019-01-30T19:50:27.579Z,24.30
2019-01-30T19:52:57.620Z,24.65
2019-01-30T19:55:26.688Z,24.05
2019-01-30T19:57:57.299Z,24.65
2019-01-30T20:00:28.886Z,25.02
2019-01-30T20:02:58.081Z,28.92
2019-01-30T20:05:27.091Z,28.12
2019-01-30T20:07:56.239Z,23.70
2019-01-30T20:10:28.160Z,25.80
2019-01-30T20:12:57.290Z,26.20
2019-01-30T20:15:26.440Z,26.30
2019-01-30T20:17:55.557Z,23.60
2019-01-30T20:20:24.641Z,25.57
2019-01-30T20:22:53.762Z,24.98
2019-01-30T20:25:25.236Z,31.35
2019-01-30T20:27:54.369Z,24.20
2019-01-30T20:30:23.461Z,23.05
2019-01-30T20:32:52.575Z,25.57
2019-01-30T20:35:21.618Z,24.57
2019-01-30T20:37:51.002Z,27.50
2019-01-30T20:40:24.668Z,24.60
2019-01-30T20:42:53.822Z,24.10
2019-01-30T20:45:33.091Z,25.95
2019-01-30T20:47:53.788Z,24.87
2019-01-30T20:50:25.069Z,27.42
2019-01-30T20:52:54.221Z,25.80
2019-01-30T20:55:23.389Z,22.85
2019-01-30T20:57:52.508Z,26.37
2019-01-30T21:00:23.729Z,23.80
2019-01-30T21:02:52.946Z,27.65
2019-01-30T21:05:22.044Z,27.07
2019-01-30T21:07:51.153Z,23.50
2019-01-30T21:10:22.484Z,29.18
2019-01-30T21:12:51.595Z,25.90
2019-01-30T21:15:20.690Z,28.02
2019-01-30T21:17:49.769Z,23.35
2019-01-30T21:20:18.891Z,24.37
2019-01-30T21:22:47.940Z,24.63
2019-01-30T21:25:18.773Z,25.88
2019-01-30T21:27:48.093Z,27.45
2019-01-30T21:30:20.033Z,24.57
2019-01-30T21:32:49.081Z,28.20
2019-01-30T21:35:18.318Z,25.45
2019-01-30T21:37:49.010Z,24.63
2019-01-30T21:40:18.582Z,30.65
2019-01-30T21:42:47.864Z,26.40
2019-01-30T21:45:18.523Z,24.10
2019-01-30T21:47:47.676Z,25.80
2019-01-30T21:50:17.762Z,26.30
2019-01-30T21:52:46.905Z,25.17
2019-01-30T21:55:17.992Z,29.32
2019-01-30T21:57:47.086Z,25.75
2019-01-30T22:00:21.239Z,27.70
2019-01-30T22:02:50.356Z,24.72
2019-01-30T22:05:19.457Z,24.80
2019-01-30T22:08:00.066Z,26.45
2019-01-30T22:10:24.281Z,35.20
2019-01-30T22:12:53.471Z,34.48
2019-01-30T22:15:22.704Z,24.32
2019-01-30T22:17:51.808Z,23.75
2019-01-30T22:20:22.839Z,26.60
2019-01-30T22:22:52.040Z,24.15
2019-01-30T22:25:21.868Z,25.50
2019-01-30T22:27:51.026Z,27.37
2019-01-30T22:30:32.601Z,25.95
2019-01-30T22:33:01.755Z,23.05
2019-01-30T22:35:30.811Z,25.00
2019-01-30T22:37:59.869Z,26.23
2019-01-30T22:40:28.964Z,24.43
2019-01-30T22:42:58.088Z,27.73
2019-01-30T22:45:27.350Z,28.20
2019-01-30T22:47:56.577Z,28.57
2019-01-30T22:50:25.736Z,24.10
2019-01-30T22:52:54.936Z,31.95
2019-01-30T22:55:24.441Z,37.25
2019-01-30T22:57:53.545Z,33.65
2019-01-30T23:00:29.846Z,38.92
2019-01-30T23:02:59.216Z,28.57
2019-01-30T23:05:44.357Z,30.25
2019-01-30T23:08:23.307Z,29.20
2019-01-30T23:11:24.283Z,26.15
2019-01-30T23:13:57.163Z,28.30
2019-01-30T23:17:19.820Z,25.30
2019-01-30T23:20:12.864Z,25.75
2019-01-30T23:23:26.617Z,25.35
2019-01-30T23:26:11.514Z,26.12
2019-01-30T23:29:13.074Z,23.70
2019-01-30T23:32:22.383Z,24.30
2019-01-30T23:35:34.523Z,24.45
2019-01-30T23:38:40.656Z,27.48
2019-01-30T23:41:47.638Z,28.12
2019-01-30T23:44:57.751Z,26.70
2019-01-30T23:48:17.234Z,25.95
2019-01-30T23:50:59.598Z,28.83
2019-01-30T23:53:57.932Z,25.12
2019-01-30T23:57:14.399Z,27.07
